createdAt,value
2022-12-16T00:01:28.163Z,45.78
2022-12-16T00:03:58.314Z,44.72
2022-12-16T00:06:32.968Z,43.78
2022-12-16T00:09:02.003Z,44.00
2022-12-16T00:11:32.146Z,45.60
2022-12-16T00:14:00.109Z,42.03
2022-12-16T00:16:29.094Z,45.10
2022-12-16T00:18:57.206Z,49.97
2022-12-16T00:21:29.802Z,50.63
2022-12-16T00:23:58.666Z,48.08
2022-12-16T00:26:26.622Z,50.78
2022-12-16T00:28:54.893Z,50.22
2022-12-16T00:31:23.935Z,46.13
2022-12-16T00:33:53.072Z,46.05
2022-12-16T00:36:21.035Z,39.15
2022-12-16T00:38:49.579Z,49.53
2022-12-16T00:41:17.536Z,44.08
2022-12-16T00:43:45.644Z,52.63
2022-12-16T00:46:13.633Z,45.63
2022-12-16T00:48:41.691Z,42.78
2022-12-16T00:51:09.949Z,47.63
2022-12-16T00:53:38.371Z,41.50
2022-12-16T00:56:12.309Z,40.67
2022-12-16T00:58:41.036Z,43.75
2022-12-16T01:01:08.947Z,43.95
2022-12-16T01:03:38.175Z,42.63
2022-12-16T01:06:17.047Z,43.63
2022-12-16T01:08:49.043Z,48.88
2022-12-16T01:11:19.565Z,50.78
2022-12-16T01:13:52.077Z,46.63
2022-12-16T01:16:20.426Z,52.40
2022-12-16T01:18:48.525Z,47.58
2022-12-16T01:21:16.568Z,46.83
2022-12-16T01:23:44.521Z,43.13
2022-12-16T01:26:17.686Z,50.08
2022-12-16T01:28:47.969Z,54.83
2022-12-16T01:31:19.166Z,36.47
2022-12-16T01:33:47.579Z,56.17
2022-12-16T01:36:15.703Z,50.17
2022-12-16T01:38:44.887Z,56.83
2022-12-16T01:41:15.553Z,53.22
2022-12-16T01:43:45.344Z,57.07
2022-12-16T01:46:21.191Z,54.70
2022-12-16T01:49:06.217Z,55.78
2022-12-16T01:51:48.848Z,54.17
2022-12-16T01:54:31.029Z,58.60
2022-12-16T01:57:04.437Z,54.92
2022-12-16T01:59:35.846Z,53.97
2022-12-16T02:02:05.157Z,65.05
2022-12-16T02:04:33.543Z,60.97
2022-12-16T02:07:02.070Z,56.72
2022-12-16T02:09:30.173Z,66.63
2022-12-16T02:12:42.210Z,58.25
2022-12-16T02:16:04.575Z,62.03
2022-12-16T02:21:59.700Z,60.78
2022-12-16T02:25:26.492Z,59.58
2022-12-16T02:28:03.534Z,55.75
2022-12-16T02:30:42.218Z,55.85
2022-12-16T02:34:11.238Z,54.28
2022-12-16T02:37:10.269Z,56.40
2022-12-16T02:40:00.788Z,52.30
2022-12-16T02:42:37.369Z,48.03
2022-12-16T02:45:13.836Z,42.72
2022-12-16T02:47:41.756Z,45.45
2022-12-16T02:50:23.704Z,49.72
2022-12-16T02:52:54.067Z,46.00
2022-12-16T02:55:29.674Z,49.40
2022-12-16T02:58:16.427Z,46.95
2022-12-16T03:01:25.967Z,47.10
2022-12-16T03:04:11.073Z,39.38
2022-12-16T03:06:43.421Z,46.42
2022-12-16T03:09:15.495Z,46.88
2022-12-16T03:11:46.681Z,42.35
2022-12-16T03:14:18.149Z,40.42
2022-12-16T03:16:48.026Z,44.38
2022-12-16T03:19:16.603Z,41.35
2022-12-16T03:22:09.393Z,39.60
2022-12-16T03:24:38.225Z,39.42
2022-12-16T03:27:48.170Z,38.67
2022-12-16T03:30:30.342Z,39.85
2022-12-16T03:33:23.594Z,45.08
2022-12-16T03:36:00.632Z,47.03
2022-12-16T03:38:31.306Z,36.63
2022-12-16T03:41:01.538Z,43.22
2022-12-16T03:43:30.322Z,46.33
2022-12-16T03:46:04.907Z,42.63
2022-12-16T03:48:34.124Z,44.92
2022-12-16T03:51:02.931Z,43.53
2022-12-16T03:53:31.321Z,42.35
2022-12-16T03:55:59.494Z,42.80
2022-12-16T03:58:27.415Z,40.47
2022-12-16T04:00:55.397Z,45.42
2022-12-16T04:03:23.600Z,45.28
2022-12-16T04:05:51.590Z,39.92
2022-12-16T04:08:20.021Z,45.33
2022-12-16T04:11:10.884Z,49.60
2022-12-16T04:13:58.083Z,46.47
2022-12-16T04:16:47.713Z,44.08
2022-12-16T04:19:49.759Z,48.90
2022-12-16T04:22:52.129Z,47.60
2022-12-16T04:25:28.022Z,49.97
2022-12-16T04:27:58.850Z,47.13
2022-12-16T04:30:28.268Z,45.97
2022-12-16T04:33:19.409Z,40.63
2022-12-16T04:36:06.578Z,44.25
2022-12-16T04:38:53.515Z,49.50
2022-12-16T04:41:39.983Z,48.13
2022-12-16T04:44:26.974Z,41.22
2022-12-16T04:47:13.767Z,54.25
2022-12-16T04:50:00.236Z,50.30
2022-12-16T04:52:47.196Z,50.00
2022-12-16T04:55:33.827Z,45.17
2022-12-16T04:58:21.780Z,48.38
2022-12-16T05:01:09.682Z,40.65
2022-12-16T05:03:56.153Z,48.40
2022-12-16T05:06:43.013Z,40.53
2022-12-16T05:09:29.429Z,40.05
2022-12-16T05:12:16.053Z,40.00
2022-12-16T05:15:02.531Z,37.75
2022-12-16T05:17:49.423Z,40.65
2022-12-16T05:20:36.795Z,41.00
2022-12-16T05:23:23.338Z,40.08
2022-12-16T05:26:10.082Z,45.28
2022-12-16T05:28:56.633Z,41.28
2022-12-16T05:31:43.561Z,45.30
2022-12-16T05:34:30.257Z,40.05
2022-12-16T05:37:17.334Z,40.70
2022-12-16T05:40:04.080Z,45.88
2022-12-16T05:42:53.535Z,37.97
2022-12-16T05:45:40.203Z,39.05
2022-12-16T05:48:47.998Z,49.20
2022-12-16T05:51:34.528Z,41.05
2022-12-16T05:54:20.953Z,40.70
2022-12-16T05:57:07.701Z,40.47
2022-12-16T05:59:54.854Z,36.63
2022-12-16T06:02:41.917Z,42.50
2022-12-16T06:05:28.838Z,40.85
2022-12-16T06:08:15.444Z,40.95
2022-12-16T06:11:01.858Z,42.10
2022-12-16T06:13:48.728Z,43.70
2022-12-16T06:16:35.203Z,41.25
2022-12-16T06:19:21.750Z,47.55
2022-12-16T06:22:08.259Z,49.15
2022-12-16T06:24:54.955Z,42.80
2022-12-16T06:27:41.648Z,31.63
2022-12-16T06:30:29.563Z,41.03
2022-12-16T06:33:16.259Z,42.63
2022-12-16T06:36:02.898Z,37.50
2022-12-16T06:38:50.049Z,41.42
2022-12-16T06:41:37.292Z,37.00
2022-12-16T06:44:23.899Z,34.70
2022-12-16T06:47:10.608Z,44.95
2022-12-16T06:49:58.265Z,41.30
2022-12-16T06:52:44.787Z,38.58
2022-12-16T06:55:31.698Z,29.27
2022-12-16T06:58:19.344Z,33.72
2022-12-16T07:01:26.617Z,39.90
2022-12-16T07:04:13.270Z,42.70
2022-12-16T07:06:59.757Z,39.10
2022-12-16T07:09:46.795Z,37.85
2022-12-16T07:12:33.703Z,35.75
2022-12-16T07:15:20.259Z,29.33
2022-12-16T07:18:06.866Z,40.83
2022-12-16T07:20:53.637Z,38.80
2022-12-16T07:23:41.491Z,43.60
2022-12-16T07:26:28.048Z,37.97
2022-12-16T07:29:14.886Z,37.45
2022-12-16T07:32:01.786Z,37.88
2022-12-16T07:34:50.254Z,33.50
2022-12-16T07:37:38.649Z,39.50
2022-12-16T07:40:26.240Z,34.22
2022-12-16T07:43:13.297Z,37.05
2022-12-16T07:45:59.811Z,38.50
2022-12-16T07:48:46.451Z,43.97
2022-12-16T07:51:32.932Z,30.58
2022-12-16T07:54:19.563Z,39.25
2022-12-16T07:57:06.265Z,37.70
2022-12-16T07:59:52.857Z,37.00
2022-12-16T08:02:40.116Z,37.25
2022-12-16T08:05:27.003Z,38.90
2022-12-16T08:08:13.834Z,34.28
2022-12-16T08:11:00.923Z,32.85
2022-12-16T08:13:47.549Z,34.45
2022-12-16T08:16:34.253Z,34.28
2022-12-16T08:19:20.663Z,37.72
2022-12-16T08:22:07.322Z,40.00
2022-12-16T08:24:53.845Z,37.28
2022-12-16T08:27:43.143Z,33.33
2022-12-16T08:30:30.298Z,33.05
2022-12-16T08:33:30.640Z,30.75
2022-12-16T08:36:18.241Z,36.53
2022-12-16T08:39:05.235Z,31.42
2022-12-16T08:41:51.862Z,33.13
2022-12-16T08:44:39.697Z,31.42
2022-12-16T08:47:26.151Z,33.92
2022-12-16T08:50:12.972Z,31.30
2022-12-16T08:52:59.500Z,28.52
2022-12-16T08:55:54.391Z,25.35
2022-12-16T08:58:44.152Z,28.17
2022-12-16T09:01:31.790Z,22.30
2022-12-16T09:04:19.383Z,25.60
2022-12-16T09:07:06.071Z,24.83
2022-12-16T09:11:02.952Z,27.17
2022-12-16T09:21:56.592Z,28.75
2022-12-16T09:52:57.836Z,24.33
2022-12-16T10:01:05.163Z,21.08
2022-12-16T10:04:12.018Z,45.35
2022-12-16T10:11:37.592Z,20.42
2022-12-16T10:23:14.219Z,20.20
2022-12-16T10:30:32.976Z,19.83
2022-12-16T10:33:22.873Z,17.88
2022-12-16T10:40:06.097Z,22.90
2022-12-16T10:46:46.596Z,20.77
2022-12-16T10:50:01.025Z,18.27
2022-12-16T10:53:39.452Z,19.30
2022-12-16T10:57:04.830Z,19.50
2022-12-16T11:00:26.768Z,18.70
2022-12-16T11:03:38.193Z,22.73
2022-12-16T11:07:10.948Z,16.13
2022-12-16T11:11:01.774Z,22.85
2022-12-16T11:16:57.755Z,20.52
2022-12-16T11:27:49.023Z,19.08
2022-12-16T11:30:51.063Z,17.10
2022-12-16T11:33:51.970Z,20.90
2022-12-16T11:39:59.251Z,20.67
2022-12-16T11:42:51.776Z,20.08
2022-12-16T11:45:43.676Z,24.13
2022-12-16T11:49:06.450Z,21.15
2022-12-16T11:52:08.125Z,21.48
2022-12-16T11:56:05.457Z,22.80
2022-12-16T11:59:07.559Z,23.92
2022-12-16T12:02:20.076Z,22.05
2022-12-16T12:05:12.984Z,23.05
2022-12-16T12:08:16.623Z,28.25
2022-12-16T12:34:35.395Z,20.50
2022-12-16T12:42:30.567Z,19.23
2022-12-16T12:50:35.408Z,14.77
2022-12-16T12:53:57.632Z,23.33
2022-12-16T13:01:11.780Z,22.02
2022-12-16T13:04:50.256Z,20.27
2022-12-16T13:07:38.775Z,19.88
2022-12-16T13:10:50.868Z,22.27
2022-12-16T13:13:59.641Z,23.25
2022-12-16T13:17:05.248Z,24.17
2022-12-16T13:20:20.430Z,20.00
2022-12-16T13:23:09.027Z,22.35
2022-12-16T13:26:10.468Z,22.73
2022-12-16T13:29:25.017Z,21.38
2022-12-16T13:32:32.930Z,17.55
2022-12-16T13:35:27.318Z,19.23
2022-12-16T13:38:39.024Z,21.33
2022-12-16T13:41:46.846Z,25.00
2022-12-16T13:45:03.214Z,23.20
2022-12-16T13:48:14.543Z,19.67
2022-12-16T13:51:19.578Z,20.77
2022-12-16T13:54:12.562Z,22.33
2022-12-16T13:57:19.971Z,21.70
2022-12-16T14:00:09.904Z,22.52
2022-12-16T14:04:11.375Z,22.67
2022-12-16T14:07:09.626Z,26.88
2022-12-16T14:10:01.482Z,24.05
2022-12-16T14:13:07.928Z,23.70
2022-12-16T14:16:16.381Z,23.83
2022-12-16T14:19:56.441Z,22.17
2022-12-16T14:23:56.476Z,20.83
2022-12-16T14:26:45.581Z,20.77
2022-12-16T14:29:45.309Z,19.90
2022-12-16T14:36:58.991Z,21.45
2022-12-16T14:39:56.082Z,20.42
2022-12-16T14:42:50.279Z,23.55
2022-12-16T14:45:57.168Z,22.92
2022-12-16T14:49:13.954Z,21.67
2022-12-16T14:52:56.486Z,19.65
2022-12-16T14:55:51.445Z,20.95
2022-12-16T14:58:48.501Z,20.73
2022-12-16T15:01:41.979Z,23.08
2022-12-16T15:04:39.698Z,21.88
2022-12-16T15:07:32.427Z,28.70
2022-12-16T15:10:26.807Z,27.52
2022-12-16T15:13:13.952Z,27.42
2022-12-16T15:16:16.081Z,30.17
2022-12-16T15:22:05.822Z,28.70
2022-12-16T15:24:57.715Z,34.53
2022-12-16T15:27:55.560Z,27.95
2022-12-16T15:30:54.168Z,29.13
2022-12-16T15:33:53.840Z,20.95
2022-12-16T15:36:51.184Z,23.83
2022-12-16T15:39:54.766Z,28.27
2022-12-16T15:43:02.119Z,23.73
2022-12-16T15:50:23.560Z,27.65
2022-12-16T15:53:10.666Z,34.42
2022-12-16T15:56:04.983Z,31.45
2022-12-16T15:58:56.014Z,29.40
2022-12-16T16:01:47.245Z,31.13
2022-12-16T16:04:48.605Z,35.35
2022-12-16T16:07:42.055Z,32.25
2022-12-16T16:10:42.268Z,27.90
2022-12-16T16:13:30.056Z,29.77
2022-12-16T16:16:18.531Z,24.40
2022-12-16T16:19:06.207Z,27.75
2022-12-16T16:21:53.262Z,22.85
2022-12-16T16:24:41.487Z,28.38
2022-12-16T16:27:31.765Z,25.17
2022-12-16T16:30:20.090Z,22.83
2022-12-16T16:33:07.063Z,22.40
2022-12-16T16:35:54.143Z,23.45
2022-12-16T16:38:44.066Z,20.70
2022-12-16T16:41:35.638Z,26.35
2022-12-16T16:44:23.612Z,26.63
2022-12-16T16:47:17.782Z,22.90
2022-12-16T16:50:06.416Z,27.40
2022-12-16T16:53:58.816Z,22.70
2022-12-16T17:03:08.589Z,27.27
2022-12-16T17:05:58.992Z,23.38
2022-12-16T17:08:47.011Z,24.73
2022-12-16T17:11:46.172Z,24.45
2022-12-16T17:14:40.296Z,22.80
